Airlie, Virginia
Current Conditions -  °F | °C
As of 1:55 PM on Thursday 23 Oct 2014 (Local Time) from KHWY Reporting Station
Broken Clouds Broken Clouds  
Wind Chill: 18°   Ceiling: 4700
Heat Index: 18°   Visibility: 10mi
Dew Point: 10°   Wind: 18mph
Humidity: 61%   Direction: 310°NW
Pressure: 29.9"   Gusts: 26mph
Location:  38.6876°N, 77.819°W
Report Text: KHWY 231755Z AUTO 31016G23KT 10SM BKN047 18/10 A2990 RMK AO2 T01770100 10190 20117
Loading
Personal Weather Stations






























Interactive Weather Map
Tropical Storm Tracking
New forecast layout! Learn more

10-Day Weather Forecast

Advertisements
Track Severe Weather on mobile